Time;durP1;ratioP1;P1;durP2;ratioP2;P2;SDS_P1;SDS_P2;PMS_P1;PMS_P2;Temp;Humidity;BMP_temperature;BMP_pressure;BME280_temperature;BME280_humidity;BME280_pressure;Samples;Min_cycle;Max_cycle;Signal;HPM_P1;HPM_P2
2023/10/22 00:04:11;;;;;;;50.60;33.00;;;;;;;10.47;94.67;98868.74;218558;1257;140704;-73
2023/10/22 00:09:16;;;;;;;41.60;29.10;;;;;;;10.55;94.86;98872.38;217768;1257;151222;-72
2023/10/22 00:14:21;;;;;;;37.00;27.20;;;;;;;10.64;95.00;98861.21;217790;1259;140410;-72
2023/10/22 00:19:26;;;;;;;39.70;26.80;;;;;;;10.73;95.73;98863.77;218213;1257;140714;-73
2023/10/22 00:24:32;;;;;;;40.10;28.30;;;;;;;10.83;95.96;98860.73;218070;1258;142082;-72
2023/10/22 00:29:36;;;;;;;37.70;24.70;;;;;;;10.92;96.03;98866.71;217653;1261;140166;-72
2023/10/22 00:34:42;;;;;;;36.70;25.00;;;;;;;10.99;96.31;98870.33;218346;1259;141166;-72
2023/10/22 00:39:47;;;;;;;37.70;25.30;;;;;;;11.04;96.23;98864.48;217985;1262;141154;-71
2023/10/22 00:44:52;;;;;;;35.00;25.00;;;;;;;11.11;96.32;98876.79;217905;1258;141240;-70
2023/10/22 00:49:57;;;;;;;27.80;22.40;;;;;;;11.19;96.94;98864.19;218102;1258;141336;-70
2023/10/22 00:55:03;;;;;;;32.60;21.50;;;;;;;11.32;97.59;98866.27;218287;1257;140574;-72
2023/10/22 01:00:10;;;;;;;27.10;20.40;;;;;;;11.48;98.20;98859.30;218608;1259;140670;-73
2023/10/22 01:05:15;;;;;;;;;;;;;;;11.64;98.78;98855.02;218904;1257;140267;-71
2023/10/22 01:10:20;;;;;;;30.50;22.70;;;;;;;11.72;98.74;98851.40;219565;1257;127459;-73
2023/10/22 01:15:24;;;;;;;32.00;21.50;;;;;;;11.80;98.36;98857.44;218197;1257;142032;-73
2023/10/22 01:20:30;;;;;;;27.80;21.30;;;;;;;11.84;98.42;98859.96;219591;1257;140621;-74
2023/10/22 01:25:35;;;;;;;30.70;21.90;;;;;;;11.89;98.62;98876.90;219940;1259;141862;-73
2023/10/22 01:30:39;;;;;;;26.00;20.50;;;;;;;11.95;98.57;98881.71;219753;1257;141851;-73
2023/10/22 01:35:44;;;;;;;32.90;20.60;;;;;;;12.01;98.56;98876.16;217881;1257;140255;-73
2023/10/22 01:40:49;;;;;;;30.10;20.40;;;;;;;12.07;98.52;98875.38;217873;1261;142874;-72
2023/10/22 01:45:54;;;;;;;26.70;20.70;;;;;;;12.11;98.95;98873.40;217879;1257;141230;-73
2023/10/22 01:50:59;;;;;;;23.50;18.20;;;;;;;12.16;99.17;98874.16;217769;1257;141705;-68
2023/10/22 01:56:04;;;;;;;30.70;20.60;;;;;;;12.20;99.14;98868.03;218143;1257;141765;-73
2023/10/22 02:01:08;;;;;;;30.80;21.80;;;;;;;12.23;99.29;98862.45;218089;1259;141283;-73
2023/10/22 02:06:16;;;;;;;23.50;17.10;;;;;;;12.26;99.27;98867.95;217815;1260;140421;-73
2023/10/22 02:11:21;;;;;;;20.70;16.50;;;;;;;12.28;99.50;98874.48;218092;1259;140566;-70
2023/10/22 02:16:26;;;;;;;18.30;14.80;;;;;;;12.29;99.33;98876.73;217583;1260;140431;-70
2023/10/22 02:21:31;;;;;;;21.50;14.80;;;;;;;12.28;99.32;98880.36;217955;1262;199868;-71
2023/10/22 02:26:36;;;;;;;22.60;16.20;;;;;;;12.29;99.41;98874.74;218101;1257;140538;-69
2023/10/22 02:31:42;;;;;;;19.00;14.40;;;;;;;12.30;99.55;98866.63;218323;1257;140358;-71
2023/10/22 02:36:47;;;;;;;18.70;13.10;;;;;;;12.32;99.19;98870.90;217842;1259;139922;-70
2023/10/22 02:41:51;;;;;;;20.20;12.10;;;;;;;12.32;99.26;98874.59;217934;1259;140929;-71
2023/10/22 02:46:54;;;;;;;14.10;10.00;;;;;;;12.32;99.43;98882.60;218708;1257;140723;-72
2023/10/22 02:51:59;;;;;;;16.70;12.50;;;;;;;12.32;99.42;98884.31;218953;1257;140923;-69
2023/10/22 02:57:05;;;;;;;19.40;14.00;;;;;;;12.33;99.23;98889.08;218628;1261;140098;-69
2023/10/22 03:02:09;;;;;;;16.60;14.00;;;;;;;12.33;99.08;98891.05;218516;1259;141439;-74
2023/10/22 03:07:12;;;;;;;19.50;12.30;;;;;;;12.33;98.94;98895.92;217806;1258;141385;-72
2023/10/22 03:12:17;;;;;;;15.10;11.40;;;;;;;12.30;98.91;98893.13;219223;1261;140646;-72
2023/10/22 03:17:21;;;;;;;16.80;12.30;;;;;;;12.29;98.80;98885.96;220205;1257;140907;-72
2023/10/22 03:22:27;;;;;;;24.10;15.10;;;;;;;12.30;98.75;98889.71;220159;1257;142031;-72
2023/10/22 03:27:32;;;;;;;20.30;12.30;;;;;;;12.30;98.76;98886.02;218994;1257;140693;-70
2023/10/22 03:32:38;;;;;;;12.00;9.60;;;;;;;12.31;98.56;98875.98;218992;1259;140678;-70
2023/10/22 03:37:43;;;;;;;14.40;10.10;;;;;;;12.30;98.59;98875.61;218836;1258;141043;-69
2023/10/22 03:42:49;;;;;;;12.90;11.50;;;;;;;12.31;98.66;98872.14;218249;1258;140284;-70
2023/10/22 03:47:54;;;;;;;11.20;9.20;;;;;;;12.32;98.84;98864.00;218497;1257;161677;-70
2023/10/22 03:52:59;;;;;;;13.80;9.70;;;;;;;12.33;98.84;98852.09;217312;1257;140338;-67
2023/10/22 03:58:03;;;;;;;12.60;9.30;;;;;;;12.30;98.56;98836.32;218446;1259;141643;-70
2023/10/22 04:03:08;;;;;;;10.30;9.00;;;;;;;12.26;98.65;98826.38;217784;1258;140402;-70
2023/10/22 04:08:14;;;;;;;13.10;9.40;;;;;;;12.25;98.62;98817.56;218185;1258;140081;-71
2023/10/22 04:13:19;;;;;;;11.70;8.80;;;;;;;12.23;98.52;98805.60;218165;1257;140244;-70
2023/10/22 04:18:24;;;;;;;11.50;9.20;;;;;;;12.22;98.71;98800.33;217792;1257;140340;-70
2023/10/22 04:23:29;;;;;;;13.10;10.30;;;;;;;12.20;98.55;98793.86;217784;1259;142188;-71
2023/10/22 04:28:33;;;;;;;10.30;9.30;;;;;;;12.18;98.96;98782.80;218440;1257;139971;-70
2023/10/22 04:33:38;;;;;;;10.70;8.70;;;;;;;12.17;98.79;98779.27;218518;1259;140574;-70
2023/10/22 04:38:44;;;;;;;10.70;8.00;;;;;;;12.16;98.53;98771.05;218165;1258;151134;-69
2023/10/22 04:43:48;;;;;;;10.10;7.60;;;;;;;12.15;98.53;98766.39;218349;1257;140295;-70
2023/10/22 04:48:54;;;;;;;8.60;7.30;;;;;;;12.14;98.56;98763.35;218451;1257;142072;-70
2023/10/22 04:53:58;;;;;;;9.80;6.30;;;;;;;12.13;98.44;98757.63;219569;1257;140124;-71
2023/10/22 04:59:04;;;;;;;6.60;5.80;;;;;;;12.13;98.35;98757.36;219216;1259;140295;-70
2023/10/22 05:04:08;;;;;;;7.20;6.10;;;;;;;12.13;98.36;98758.75;219662;1257;141230;-70
2023/10/22 05:09:13;;;;;;;5.00;4.50;;;;;;;12.13;98.53;98760.30;219883;1259;141057;-70
2023/10/22 05:14:17;;;;;;;6.80;6.00;;;;;;;12.15;98.60;98763.19;220038;1259;140457;-70
2023/10/22 05:19:22;;;;;;;6.40;5.20;;;;;;;12.19;98.21;98770.94;219179;1258;141116;-71
2023/10/22 05:24:26;;;;;;;5.60;4.30;;;;;;;12.21;98.46;98764.69;219726;1260;141187;-70
2023/10/22 05:29:31;;;;;;;7.30;5.00;;;;;;;12.23;98.57;98764.89;218307;1257;140929;-70
2023/10/22 05:34:36;;;;;;;9.00;7.20;;;;;;;12.22;98.44;98760.66;218212;1258;139928;-70
2023/10/22 05:40:11;;;;;;;9.30;7.70;;;;;;;12.22;98.40;98768.05;217944;1259;140353;-70
2023/10/22 05:45:16;;;;;;;12.20;9.00;;;;;;;12.22;98.68;98769.42;218360;1260;140848;-70
2023/10/22 05:50:21;;;;;;;16.20;9.20;;;;;;;12.20;98.84;98766.02;218031;1260;140619;-70
2023/10/22 05:55:25;;;;;;;9.70;8.40;;;;;;;12.21;98.85;98764.15;218046;1259;140602;-69
2023/10/22 06:00:29;;;;;;;12.30;8.00;;;;;;;12.21;99.05;98759.71;218388;1257;140799;-71
2023/10/22 06:05:39;;;;;;;10.70;9.50;;;;;;;12.20;98.89;98751.01;217521;1259;140724;-70
2023/10/22 06:10:46;;;;;;;12.10;10.70;;;;;;;12.21;99.17;98754.48;217015;1260;140352;-70
2023/10/22 06:15:56;;;;;;;14.60;11.50;;;;;;;12.22;99.18;98756.23;218699;1259;141432;-70
2023/10/22 06:21:12;;;;;;;14.40;10.90;;;;;;;12.24;99.53;98753.65;217323;1260;140399;-70
2023/10/22 06:26:18;;;;;;;11.30;10.10;;;;;;;12.26;99.50;98753.54;218651;1259;141072;-70
2023/10/22 06:31:23;;;;;;;15.40;11.90;;;;;;;12.27;99.41;98755.95;217467;1260;140521;-69
2023/10/22 06:36:28;;;;;;;13.90;12.00;;;;;;;12.28;99.44;98752.09;218303;1259;140584;-70
2023/10/22 06:41:34;;;;;;;15.40;11.60;;;;;;;12.29;99.40;98742.73;218845;1259;140698;-69
2023/10/22 06:46:39;;;;;;;16.60;13.60;;;;;;;12.31;99.38;98737.93;218038;1259;141381;-70
2023/10/22 06:51:43;;;;;;;12.60;11.30;;;;;;;12.33;99.43;98726.92;218864;1259;140607;-70
2023/10/22 06:56:47;;;;;;;11.80;10.10;;;;;;;12.35;99.50;98719.39;219878;1259;140789;-70
2023/10/22 07:01:51;;;;;;;12.30;10.70;;;;;;;12.40;99.45;98718.73;220020;1258;140968;-71
2023/10/22 07:06:55;;;;;;;11.20;9.30;;;;;;;12.45;99.32;98715.52;220146;1259;142204;-70
2023/10/22 07:12:00;;;;;;;12.00;9.60;;;;;;;12.51;99.33;98712.30;219666;1258;140710;-70
2023/10/22 07:17:04;;;;;;;11.00;9.50;;;;;;;12.57;99.00;98705.41;218940;1259;142207;-68
2023/10/22 07:22:09;;;;;;;13.80;9.60;;;;;;;12.62;99.17;98702.56;218368;1258;140856;-71
2023/10/22 07:27:14;;;;;;;10.50;9.20;;;;;;;12.64;98.94;98701.55;219110;1259;140926;-70
2023/10/22 07:32:18;;;;;;;9.90;8.40;;;;;;;12.66;99.10;98703.58;218275;1262;140121;-70
2023/10/22 07:37:22;;;;;;;21.10;8.80;;;;;;;12.69;99.37;98705.92;217944;1260;139903;-68
2023/10/22 07:42:27;;;;;;;8.80;7.50;;;;;;;12.75;99.44;98704.77;217269;1260;140111;-70
2023/10/22 07:47:32;;;;;;;8.20;6.90;;;;;;;12.79;99.32;98702.94;218357;1258;140514;-70
2023/10/22 07:52:38;;;;;;;7.40;6.70;;;;;;;12.82;99.31;98697.27;217450;1259;140035;-70
2023/10/22 07:57:42;;;;;;;7.40;6.40;;;;;;;12.87;99.35;98700.33;217213;1259;140191;-70
2023/10/22 08:02:46;;;;;;;7.40;6.60;;;;;;;12.89;99.31;98706.89;217780;1259;140106;-70
2023/10/22 08:07:51;;;;;;;8.50;7.50;;;;;;;12.90;99.40;98708.23;218617;1260;140026;-70
2023/10/22 08:12:56;;;;;;;9.10;7.70;;;;;;;12.90;99.10;98712.55;218549;1261;140077;-70
2023/10/22 08:18:02;;;;;;;8.30;6.60;;;;;;;12.90;99.17;98715.02;218268;1259;140141;-70
2023/10/22 08:23:07;;;;;;;7.00;6.30;;;;;;;12.88;98.91;98720.38;218272;1261;140452;-70
2023/10/22 08:28:11;;;;;;;9.30;8.40;;;;;;;12.88;99.06;98731.08;217339;1259;140030;-70
2023/10/22 08:33:17;;;;;;;14.40;9.10;;;;;;;12.88;99.01;98733.59;217903;1260;140115;-69
2023/10/22 08:38:23;;;;;;;11.50;10.10;;;;;;;12.88;99.20;98743.16;218174;1262;140225;-69
2023/10/22 08:43:32;;;;;;;12.70;9.50;;;;;;;12.85;98.94;98743.92;217344;1262;141252;-71
2023/10/22 08:48:40;;;;;;;17.00;11.50;;;;;;;12.85;98.90;98739.44;219484;1259;141656;-71
2023/10/22 08:53:44;;;;;;;13.80;9.60;;;;;;;12.82;98.59;98743.63;219908;1259;141003;-72
2023/10/22 08:58:49;;;;;;;18.40;11.30;;;;;;;12.78;98.13;98742.95;219941;1259;140011;-71
2023/10/22 09:03:55;;;;;;;15.50;10.80;;;;;;;12.74;98.31;98743.77;219496;1261;141587;-71
2023/10/22 09:09:03;;;;;;;13.00;11.10;;;;;;;12.73;98.12;98742.70;219917;1259;140762;-72
2023/10/22 09:14:21;;;;;;;14.00;11.70;;;;;;;12.72;97.97;98748.48;219322;1259;141126;-71
2023/10/22 09:19:39;;;;;;;16.20;11.90;;;;;;;12.71;97.55;98752.60;218907;1259;140766;-71
2023/10/22 09:24:49;;;;;;;15.00;12.40;;;;;;;12.72;97.81;98749.59;218020;1262;141105;-71
2023/10/22 09:29:54;;;;;;;14.60;12.40;;;;;;;12.72;97.60;98751.41;219122;1259;141348;-71
2023/10/22 09:35:14;;;;;;;14.10;10.20;;;;;;;12.73;97.45;98752.70;217922;1259;140952;-70
2023/10/22 09:40:22;;;;;;;12.30;10.40;;;;;;;12.74;97.72;98750.23;219127;1259;140984;-70
2023/10/22 09:45:27;;;;;;;11.70;9.40;;;;;;;12.77;97.71;98756.32;217954;1262;140485;-70
2023/10/22 09:50:43;;;;;;;10.20;8.20;;;;;;;12.81;97.91;98751.23;218078;1259;139804;-70
2023/10/22 09:55:49;;;;;;;10.70;9.60;;;;;;;12.86;97.82;98751.35;217950;1262;140647;-70
2023/10/22 10:00:55;;;;;;;11.60;8.80;;;;;;;12.87;97.68;98751.61;218126;1262;140951;-70
2023/10/22 10:06:03;;;;;;;7.50;6.80;;;;;;;12.84;97.43;98749.13;218089;1262;140238;-70
2023/10/22 10:11:11;;;;;;;9.20;7.40;;;;;;;12.81;97.54;98741.50;217181;1262;140086;-72
2023/10/22 10:16:17;;;;;;;9.30;8.40;;;;;;;12.80;97.62;98738.94;218064;1261;140124;-70
2023/10/22 10:21:39;;;;;;;10.50;8.70;;;;;;;12.79;97.78;98736.27;217288;1262;140108;-71
2023/10/22 10:26:47;;;;;;;10.20;9.00;;;;;;;12.81;97.81;98732.89;219098;1260;140780;-70
2023/10/22 10:31:55;;;;;;;9.50;8.60;;;;;;;12.85;98.16;98734.73;217320;1261;151520;-70
2023/10/22 10:37:14;;;;;;;10.60;9.00;;;;;;;12.89;98.06;98733.90;218385;1261;139935;-71
2023/10/22 10:42:29;;;;;;;10.90;9.80;;;;;;;12.90;97.80;98730.05;219657;1261;140442;-68
2023/10/22 10:47:41;;;;;;;10.60;9.20;;;;;;;12.94;97.80;98730.09;218973;1261;140882;-71
2023/10/22 10:52:47;;;;;;;10.90;8.90;;;;;;;12.94;97.47;98727.37;219120;1257;140742;-71
2023/10/22 10:57:55;;;;;;;9.90;8.50;;;;;;;12.94;97.35;98731.42;220006;1258;141158;-71
2023/10/22 11:03:02;;;;;;;12.50;9.40;;;;;;;12.95;97.50;98723.52;220027;1261;142813;-70
2023/10/22 11:08:22;;;;;;;8.80;7.90;;;;;;;12.99;97.52;98726.38;220180;1257;140521;-71
2023/10/22 11:13:27;;;;;;;10.00;7.20;;;;;;;13.05;97.48;98728.40;219495;1257;140788;-71
2023/10/22 11:18:31;;;;;;;8.10;7.30;;;;;;;13.06;97.39;98732.83;217343;1257;141145;-70
2023/10/22 11:23:38;;;;;;;8.70;7.80;;;;;;;13.08;97.42;98728.11;218405;1262;140116;-69
2023/10/22 11:28:45;;;;;;;7.70;7.00;;;;;;;13.07;97.22;98734.59;217888;1257;140021;-70
2023/10/22 11:33:49;;;;;;;8.20;6.70;;;;;;;13.07;97.27;98736.15;217220;1263;139894;-70
2023/10/22 11:38:53;;;;;;;8.50;6.60;;;;;;;13.09;97.55;98735.11;219517;1261;140457;-71
2023/10/22 11:43:58;;;;;;;7.60;6.10;;;;;;;13.12;97.23;98738.15;217516;1259;162741;-69
2023/10/22 11:49:03;;;;;;;6.80;6.10;;;;;;;13.15;97.17;98738.08;218490;1261;142631;-70
2023/10/22 11:54:07;;;;;;;9.10;6.00;;;;;;;13.25;97.46;98746.02;217525;1261;140102;-72
2023/10/22 11:59:12;;;;;;;7.50;6.80;;;;;;;13.37;97.79;98749.39;217819;1263;141073;-70
2023/10/22 12:04:18;;;;;;;9.10;7.10;;;;;;;13.48;97.47;98755.90;217669;1262;141152;-70
2023/10/22 12:09:24;;;;;;;7.30;6.40;;;;;;;13.57;97.51;98755.58;217614;1263;140500;-71
2023/10/22 12:14:29;;;;;;;6.20;5.70;;;;;;;13.63;97.27;98761.00;217110;1260;140443;-71
2023/10/22 12:19:34;;;;;;;6.00;5.50;;;;;;;13.72;97.40;98766.14;219177;1257;141636;-69
2023/10/22 12:24:38;;;;;;;11.60;7.40;;;;;;;13.89;97.27;98769.29;218381;1257;151023;-69
2023/10/22 12:29:43;;;;;;;8.40;7.00;;;;;;;14.05;97.40;98772.10;218449;1258;140279;-68
2023/10/22 12:34:48;;;;;;;6.20;5.30;;;;;;;14.15;96.97;98773.23;217942;1258;139737;-70
2023/10/22 12:39:53;;;;;;;5.40;4.90;;;;;;;14.27;97.19;98781.46;218162;1258;140875;-69
2023/10/22 12:44:57;;;;;;;6.40;5.70;;;;;;;14.46;97.22;98790.09;219005;1258;141584;-72
2023/10/22 12:50:05;;;;;;;6.40;5.80;;;;;;;14.62;96.89;98792.86;220008;1262;140907;-69
2023/10/22 12:55:11;;;;;;;10.50;6.80;;;;;;;14.71;96.43;98799.29;219925;1257;140467;-71
2023/10/22 13:00:18;;;;;;;6.50;5.60;;;;;;;14.80;96.55;98808.58;218903;1257;223716;-70
2023/10/22 13:05:23;;;;;;;5.20;4.60;;;;;;;14.85;96.19;98818.36;219332;1257;140363;-70
2023/10/22 13:10:28;;;;;;;6.60;6.00;;;;;;;14.81;95.74;98823.49;218118;1260;140233;-67
2023/10/22 13:15:36;;;;;;;5.70;4.80;;;;;;;14.80;95.73;98833.48;218026;1260;140142;-69
2023/10/22 13:20:42;;;;;;;6.80;6.10;;;;;;;14.77;95.53;98840.27;219172;1259;141293;-69
2023/10/22 13:25:47;;;;;;;6.90;6.30;;;;;;;14.71;95.42;98842.27;218252;1262;139912;-68
2023/10/22 13:30:52;;;;;;;6.60;5.90;;;;;;;14.60;95.16;98847.91;218313;1263;140984;-70
2023/10/22 13:35:58;;;;;;;6.80;6.00;;;;;;;14.43;95.04;98856.13;218285;1260;140446;-70
2023/10/22 13:41:03;;;;;;;7.40;5.80;;;;;;;14.31;95.32;98862.98;217761;1260;140459;-70
2023/10/22 13:46:08;;;;;;;11.90;8.90;;;;;;;14.18;95.18;98867.24;217651;1260;139800;-66
2023/10/22 13:51:13;;;;;;;9.80;8.60;;;;;;;14.07;95.17;98874.83;218361;1260;140732;-69
2023/10/22 13:56:17;;;;;;;12.30;8.20;;;;;;;13.96;95.22;98881.92;218041;1257;142233;-68
2023/10/22 14:01:21;;;;;;;15.40;10.30;;;;;;;13.91;95.56;98886.34;217732;1259;140557;-67
2023/10/22 14:06:25;;;;;;;15.50;12.00;;;;;;;13.90;95.61;98894.44;219325;1261;141028;-67
2023/10/22 14:11:29;;;;;;;15.80;12.60;;;;;;;13.87;95.69;98904.59;217755;1257;142488;-67
2023/10/22 14:16:34;;;;;;;11.60;10.30;;;;;;;13.78;95.41;98908.21;218262;1257;142388;-68
2023/10/22 14:21:41;;;;;;;10.80;8.60;;;;;;;13.69;95.77;98908.86;218160;1258;1264816;-70
2023/10/22 14:26:46;;;;;;;13.00;11.40;;;;;;;13.66;95.75;98912.56;218566;1257;141217;-68
2023/10/22 14:32:08;;;;;;;12.20;10.60;;;;;;;13.63;95.63;98915.95;219339;1257;141791;-68
2023/10/22 14:37:12;;;;;;;15.10;11.90;;;;;;;13.59;95.69;98927.10;218229;1257;141585;-67
2023/10/22 14:42:17;;;;;;;13.00;11.40;;;;;;;13.53;95.67;98936.98;219907;1257;140424;-67
2023/10/22 14:47:22;;;;;;;16.20;11.90;;;;;;;13.48;95.67;98943.79;219798;1257;141564;-67
2023/10/22 14:52:26;;;;;;;15.60;10.80;;;;;;;13.45;95.69;98947.56;219981;1257;140402;-67
2023/10/22 14:57:30;;;;;;;15.50;12.90;;;;;;;13.41;95.53;98962.84;219906;1257;141193;-67
2023/10/22 15:02:34;;;;;;;18.70;14.10;;;;;;;13.32;95.58;98972.27;219511;1257;141238;-69
2023/10/22 15:07:39;;;;;;;16.70;14.10;;;;;;;13.29;95.65;98976.40;218101;1261;142338;-67
2023/10/22 15:12:45;;;;;;;19.50;14.90;;;;;;;13.28;95.66;98983.79;217862;1259;140818;-67
2023/10/22 15:17:51;;;;;;;19.30;14.30;;;;;;;13.22;95.94;98991.66;217328;1259;140523;-67
2023/10/22 15:22:54;;;;;;;21.80;15.70;;;;;;;13.16;95.84;99002.14;217520;1258;140386;-67
2023/10/22 15:28:01;;;;;;;26.40;16.10;;;;;;;13.10;96.12;99007.34;217527;1258;141117;-67
2023/10/22 15:33:04;;;;;;;24.10;18.50;;;;;;;13.05;96.52;99014.77;217682;1257;141024;-67
2023/10/22 15:38:10;;;;;;;24.50;17.40;;;;;;;13.05;96.49;99023.88;218333;1257;141003;-67
2023/10/22 15:43:15;;;;;;;23.10;16.40;;;;;;;13.03;96.65;99032.16;218077;1259;140628;-66
2023/10/22 15:48:25;;;;;;;21.90;17.60;;;;;;;13.00;96.73;99043.34;217874;1262;247480;-68
2023/10/22 15:53:28;;;;;;;;;;;;;;;12.91;96.62;99053.65;217417;1262;233369;-74
2023/10/22 15:58:32;;;;;;;22.80;16.10;;;;;;;12.83;97.06;99066.92;217345;1257;127656;-74
2023/10/22 16:03:39;;;;;;;22.20;16.70;;;;;;;12.77;97.13;99072.11;217109;1262;140470;-72
2023/10/22 16:08:45;;;;;;;18.50;13.50;;;;;;;12.77;97.33;99082.11;217804;1259;142085;-73
2023/10/22 16:13:49;;;;;;;20.70;15.60;;;;;;;12.74;97.47;99092.80;217955;1259;141369;-69
2023/10/22 16:18:53;;;;;;;17.50;13.10;;;;;;;12.72;97.63;99094.13;217814;1257;140354;-71
2023/10/22 16:23:56;;;;;;;14.20;11.70;;;;;;;12.70;97.45;99099.52;218091;1257;140327;-71
2023/10/22 16:29:05;;;;;;;16.00;12.60;;;;;;;12.67;97.50;99106.58;217695;1257;141922;-69
2023/10/22 16:34:09;;;;;;;14.00;10.80;;;;;;;12.67;97.57;99116.30;218702;1261;140142;-69
2023/10/22 16:39:13;;;;;;;18.50;14.00;;;;;;;12.64;97.65;99126.72;218207;1257;140872;-68
2023/10/22 16:44:17;;;;;;;14.70;12.80;;;;;;;12.63;97.76;99129.71;217718;1257;141438;-68
2023/10/22 16:49:20;;;;;;;13.00;9.80;;;;;;;12.62;97.61;99134.27;219992;1257;140363;-71
2023/10/22 16:54:25;;;;;;;13.00;10.30;;;;;;;12.59;97.47;99135.30;220231;1257;141032;-71
2023/10/22 16:59:29;;;;;;;12.10;10.30;;;;;;;12.59;97.57;99144.52;219887;1257;140746;-72
2023/10/22 17:04:34;;;;;;;15.10;10.20;;;;;;;12.62;97.63;99149.49;219954;1258;140999;-70
2023/10/22 17:09:39;;;;;;;12.70;10.70;;;;;;;12.65;97.68;99152.02;219987;1257;140227;-70
2023/10/22 17:14:46;;;;;;;12.30;9.40;;;;;;;12.68;97.74;99161.45;218827;1257;142260;-70
2023/10/22 17:19:57;;;;;;;11.10;10.00;;;;;;;12.69;97.58;99166.32;218472;1258;140870;-70
2023/10/22 17:25:03;;;;;;;10.70;9.30;;;;;;;12.69;97.72;99169.31;219009;1257;140582;-68
2023/10/22 17:30:08;;;;;;;12.60;10.20;;;;;;;12.70;97.87;99180.77;218973;1257;140115;-69
2023/10/22 17:35:14;;;;;;;10.70;8.30;;;;;;;12.67;97.88;99182.04;218789;1259;222433;-70
2023/10/22 17:40:18;;;;;;;12.50;8.70;;;;;;;12.65;97.98;99183.89;218087;1261;140736;-72
2023/10/22 17:45:23;;;;;;;7.40;5.70;;;;;;;12.65;97.67;99188.02;218267;1258;140795;-69
2023/10/22 17:50:28;;;;;;;12.50;9.10;;;;;;;12.61;97.90;99199.39;217292;1261;140823;-68
2023/10/22 17:55:33;;;;;;;9.80;8.70;;;;;;;12.60;98.00;99202.16;217820;1262;140259;-69
2023/10/22 18:00:38;;;;;;;9.30;8.10;;;;;;;12.58;97.90;99209.16;217893;1259;140494;-68
2023/10/22 18:05:43;;;;;;;10.70;8.50;;;;;;;12.57;98.12;99217.64;217388;1257;140228;-68
2023/10/22 18:10:56;;;;;;;12.90;9.90;;;;;;;12.55;98.35;99229.67;218512;1258;140969;-68
2023/10/22 18:16:01;;;;;;;10.50;9.40;;;;;;;12.53;98.10;99232.40;218575;1258;140045;-69
2023/10/22 18:21:05;;;;;;;11.40;9.50;;;;;;;12.51;98.36;99238.22;217849;1259;142144;-70
2023/10/22 18:26:11;;;;;;;13.90;10.60;;;;;;;12.49;98.26;99246.56;217923;1261;140029;-70
2023/10/22 18:31:17;;;;;;;11.70;7.20;;;;;;;12.48;98.53;99254.35;218369;1260;140667;-70
2023/10/22 18:36:26;;;;;;;12.90;10.70;;;;;;;12.48;98.46;99262.43;220025;1257;224482;-68
2023/10/22 18:41:30;;;;;;;10.40;8.50;;;;;;;12.47;98.61;99272.37;219450;1258;140109;-68
2023/10/22 18:46:39;;;;;;;9.60;8.60;;;;;;;12.48;98.72;99271.30;218862;1257;140534;-68
2023/10/22 18:51:44;;;;;;;9.60;7.60;;;;;;;12.52;98.52;99274.11;219277;1259;141466;-69
2023/10/22 18:56:51;;;;;;;9.10;7.60;;;;;;;12.54;98.56;99286.02;219376;1257;140131;-69
2023/10/22 19:02:03;;;;;;;8.40;7.60;;;;;;;12.55;98.83;99288.91;219561;1257;140808;-68
2023/10/22 19:07:14;;;;;;;10.00;7.80;;;;;;;12.57;98.70;99294.27;219188;1259;141871;-71
2023/10/22 19:12:39;;;;;;;8.20;6.80;;;;;;;12.55;98.60;99302.70;217809;1258;140456;-71
2023/10/22 19:17:51;;;;;;;7.50;6.30;;;;;;;12.53;98.70;99306.13;217856;1257;222369;-72
2023/10/22 19:22:59;;;;;;;7.50;6.70;;;;;;;12.53;98.90;99314.74;217890;1257;140025;-71
2023/10/22 19:28:09;;;;;;;7.10;5.90;;;;;;;12.52;98.86;99320.47;217988;1259;140442;-66
2023/10/22 19:33:29;;;;;;;8.00;6.00;;;;;;;12.52;99.24;99327.85;219038;1259;140676;-68
2023/10/22 19:38:37;;;;;;;7.90;7.00;;;;;;;12.54;98.97;99331.85;218697;1259;140166;-66
2023/10/22 19:43:46;;;;;;;6.60;5.10;;;;;;;12.55;98.95;99335.59;217353;1259;139875;-67
2023/10/22 19:48:57;;;;;;;6.20;5.60;;;;;;;12.52;99.03;99341.36;218586;1257;140033;-68
2023/10/22 19:54:15;;;;;;;3.80;3.60;;;;;;;12.48;98.79;99343.00;217305;1259;140515;-69
2023/10/22 19:59:24;;;;;;;2.70;2.50;;;;;;;12.43;98.94;99346.12;218406;1257;140784;-67
2023/10/22 20:04:41;;;;;;;4.50;2.80;;;;;;;12.39;99.05;99355.27;217627;1260;140208;-69
2023/10/22 20:09:50;;;;;;;3.00;2.10;;;;;;;12.36;98.76;99361.08;217533;1259;140626;-68
2023/10/22 20:14:56;;;;;;;10.90;4.20;;;;;;;12.30;98.77;99370.54;217462;1259;140044;-68
2023/10/22 20:20:08;;;;;;;4.50;3.00;;;;;;;12.23;98.57;99379.20;218219;1259;141310;-68
2023/10/22 20:25:13;;;;;;;3.20;2.90;;;;;;;12.13;98.75;99382.64;218537;1259;142922;-69
2023/10/22 20:30:20;;;;;;;;;;;;;;;12.09;98.91;99392.11;218523;1259;140485;-66
2023/10/22 20:35:26;;;;;;;3.50;3.00;;;;;;;12.03;98.89;99392.96;219033;1259;127155;-66
2023/10/22 20:40:33;;;;;;;3.20;2.30;;;;;;;11.99;98.90;99400.13;219285;1259;141845;-66
2023/10/22 20:45:43;;;;;;;2.90;2.70;;;;;;;11.95;98.76;99405.05;219152;1259;140323;-66
2023/10/22 20:50:48;;;;;;;2.40;2.20;;;;;;;11.95;98.95;99412.41;219678;1259;140549;-66
2023/10/22 20:55:56;;;;;;;3.20;2.90;;;;;;;11.93;98.70;99417.75;217966;1261;141142;-68
2023/10/22 21:01:23;;;;;;;6.20;2.50;;;;;;;11.94;98.74;99420.25;218034;1259;139719;-68
2023/10/22 21:06:32;;;;;;;2.50;2.20;;;;;;;11.93;98.60;99421.59;218585;1259;140495;-68
2023/10/22 21:11:43;;;;;;;3.60;3.10;;;;;;;11.91;98.38;99421.42;218083;1259;139837;-68
2023/10/22 21:16:49;;;;;;;3.10;2.50;;;;;;;11.89;98.54;99422.73;217062;1258;140546;-69
2023/10/22 21:21:56;;;;;;;3.50;3.20;;;;;;;11.86;98.46;99420.47;217955;1262;140675;-66
2023/10/22 21:27:03;;;;;;;3.60;2.60;;;;;;;11.82;98.57;99425.96;217418;1259;140151;-70
2023/10/22 21:32:11;;;;;;;3.90;2.70;;;;;;;11.74;98.04;99429.00;217584;1258;141604;-70
2023/10/22 21:37:19;;;;;;;3.60;3.30;;;;;;;11.65;97.87;99442.81;218400;1258;139763;-67
2023/10/22 21:42:25;;;;;;;;;;;;;;;11.58;97.75;99451.39;217752;1259;139991;-67
2023/10/22 21:47:31;;;;;;;7.90;6.50;;;;;;;11.52;98.31;99455.16;218001;1259;235222;-67
2023/10/22 21:52:37;;;;;;;6.90;4.70;;;;;;;11.52;98.60;99460.71;217352;1258;140688;-70
2023/10/22 21:57:47;;;;;;;6.20;5.60;;;;;;;11.50;98.38;99465.77;218934;1258;140718;-70
2023/10/22 22:02:59;;;;;;;6.10;5.40;;;;;;;11.48;98.16;99468.20;217814;1259;139975;-69
2023/10/22 22:08:05;;;;;;;6.80;5.70;;;;;;;11.47;98.43;99472.66;217972;1257;140631;-67
2023/10/22 22:13:11;;;;;;;6.10;5.40;;;;;;;11.42;98.35;99475.58;217701;1257;139615;-69
2023/10/22 22:18:16;;;;;;;4.90;4.40;;;;;;;11.39;98.21;99484.19;217832;1259;141049;-71
2023/10/22 22:23:22;;;;;;;7.90;5.80;;;;;;;11.38;98.53;99487.36;219311;1259;140333;-69
2023/10/22 22:28:26;;;;;;;8.20;5.70;;;;;;;11.36;98.28;99487.81;218874;1260;140851;-69
2023/10/22 22:33:30;;;;;;;7.50;5.50;;;;;;;11.34;98.02;99489.02;219336;1257;139724;-68
2023/10/22 22:38:34;;;;;;;7.20;5.80;;;;;;;11.32;97.76;99495.29;218766;1259;139906;-70
2023/10/22 22:43:38;;;;;;;7.50;6.20;;;;;;;11.29;97.94;99498.83;219222;1257;140698;-69
2023/10/22 22:48:42;;;;;;;10.50;6.60;;;;;;;11.26;98.00;99502.38;219683;1260;141637;-69
2023/10/22 22:53:46;;;;;;;9.60;7.10;;;;;;;11.26;98.22;99508.23;217629;1261;140233;-68
2023/10/22 22:58:51;;;;;;;8.50;7.70;;;;;;;11.28;97.91;99512.31;217787;1259;140417;-69
2023/10/22 23:03:56;;;;;;;9.80;8.30;;;;;;;11.23;97.99;99511.77;217835;1259;142812;-69
2023/10/22 23:09:01;;;;;;;13.50;11.10;;;;;;;11.17;98.03;99518.45;218408;1259;139804;-68
2023/10/22 23:14:06;;;;;;;12.30;9.60;;;;;;;11.14;98.42;99518.67;219208;1259;141239;-69